Terminal Aerodrome Forecast
Issued by NWS Newport/Morehead City, NC

Home | Current Version | Previous Version | Graphics & Text | Print | Product List | Glossary On
Versions: 1 2 3 4 5 6 7 8 9 10 11 12 13 14 15 16
000
FTUS42 KMHX 210500 RRA
TAFEWN
TAF
KEWN 210543Z 2106/2206 VRB03KT 4SM BR BKN120
     FM210900 00000KT 2SM BR SCT007 BKN120
     FM211300 08005KT P6SM SCT020 BKN100
     FM211600 09006KT P6SM VCTS SCT030CB BKN100
     FM220000 10003KT P6SM SCT025 BKN040=

USA.gov is the U.S. government's official web portal to all federal, state and local government web resources and services.